Time;durP1;ratioP1;P1;durP2;ratioP2;P2;SDS_P1;SDS_P2;PMS_P1;PMS_P2;Temp;Humidity;BMP_temperature;BMP_pressure;BME280_temperature;BME280_humidity;BME280_pressure;Samples;Min_cycle;Max_cycle;Signal;HPM_P1;HPM_P2
2022/02/06 00:00:21;;;;;;;3.00;1.80;;;3.90;84.30;;;;;;1924729;74;21034;-52
2022/02/06 00:02:51;;;;;;;2.85;2.05;;;3.90;84.10;;;;;;1924682;74;21026;-51
2022/02/06 00:05:20;;;;;;;2.83;1.98;;;3.90;83.90;;;;;;1924649;74;21027;-52
2022/02/06 00:07:50;;;;;;;4.40;2.08;;;3.90;83.60;;;;;;1924539;74;21041;-51
2022/02/06 00:10:20;;;;;;;1.75;1.62;;;3.90;83.70;;;;;;1924691;74;21089;-52
2022/02/06 00:12:50;;;;;;;2.08;1.50;;;3.90;85.00;;;;;;1924653;74;21031;-50
2022/02/06 00:15:21;;;;;;;1.45;1.10;;;3.90;83.80;;;;;;1924642;74;21070;-52
2022/02/06 00:17:50;;;;;;;1.80;1.35;;;3.90;84.90;;;;;;1924671;74;21076;-53
2022/02/06 00:20:19;;;;;;;2.75;1.40;;;3.80;84.20;;;;;;1924660;74;21050;-49
2022/02/06 00:22:56;;;;;;;1.32;1.22;;;3.80;85.80;;;;;;1924627;74;21066;-52
2022/02/06 00:30:38;;;;;;;2.72;2.02;;;3.80;86.00;;;;;;1924548;74;21125;-52
2022/02/06 00:33:11;;;;;;;3.67;1.80;;;3.70;85.40;;;;;;1923919;74;21043;-52
2022/02/06 00:43:27;;;;;;;2.15;1.85;;;3.70;84.70;;;;;;1924583;74;21465;-52
2022/02/06 00:45:57;;;;;;;2.87;2.02;;;3.70;85.00;;;;;;1924629;74;21152;-51
2022/02/06 00:48:28;;;;;;;1.92;1.57;;;3.70;84.90;;;;;;1924693;74;21042;-52
2022/02/06 00:51:13;;;;;;;2.98;2.08;;;3.70;84.60;;;;;;1924572;74;21077;-52
2022/02/06 00:53:35;;;;;;;3.08;1.90;;;3.70;84.60;;;;;;1923540;74;21054;-52
2022/02/06 00:56:04;;;;;;;3.10;2.40;;;3.70;85.00;;;;;;1924673;74;21027;-49
2022/02/06 00:58:34;;;;;;;2.90;2.15;;;3.80;84.80;;;;;;1924622;74;21019;-52
2022/02/06 01:01:04;;;;;;;2.83;2.30;;;3.80;85.00;;;;;;1924595;74;21027;-51
2022/02/06 01:03:33;;;;;;;2.92;1.82;;;3.90;84.90;;;;;;1924761;74;21084;-52
2022/02/06 01:06:04;;;;;;;2.42;1.87;;;3.90;84.90;;;;;;1924621;74;20991;-53
2022/02/06 01:08:33;;;;;;;3.08;2.37;;;4.00;85.60;;;;;;1911523;74;21056;-52
2022/02/06 01:11:07;;;;;;;4.10;2.42;;;4.00;84.90;;;;;;1905166;74;20995;-51
2022/02/06 01:13:49;;;;;;;2.33;2.05;;;4.00;85.10;;;;;;1905138;74;21019;-51
2022/02/06 01:16:15;;;;;;;2.33;2.12;;;4.00;85.00;;;;;;1904119;74;21028;-52
2022/02/06 01:18:43;;;;;;;3.20;2.35;;;4.00;85.30;;;;;;1904549;74;21039;-52
2022/02/06 01:21:21;;;;;;;4.42;2.35;;;4.10;85.30;;;;;;1905037;74;21109;-52
2022/02/06 01:23:52;;;;;;;4.42;2.40;;;4.10;86.10;;;;;;1904135;74;21019;-52
2022/02/06 01:26:29;;;;;;;3.12;2.45;;;4.00;85.60;;;;;;1904645;74;21048;-51
2022/02/06 01:28:52;;;;;;;1.20;1.05;;;4.00;85.60;;;;;;1902942;74;21109;-52
2022/02/06 01:33:58;;;;;;;1.15;0.98;;;3.90;87.30;;;;;;1905366;75;21043;-52
2022/02/06 01:39:15;;;;;;;2.45;1.12;;;3.80;86.90;;;;;;1905200;75;21023;-52
2022/02/06 01:41:41;;;;;;;4.10;1.62;;;3.80;86.50;;;;;;1904373;74;21097;-50
2022/02/06 01:44:13;;;;;;;2.10;1.40;;;3.80;86.40;;;;;;1905109;74;21523;-52
2022/02/06 01:57:19;;;;;;;2.55;1.22;;;3.80;86.50;;;;;;1905021;74;21027;-53
2022/02/06 02:03:15;;;;;;;3.08;2.00;;;3.80;86.20;;;;;;1905168;75;21090;-53
2022/02/06 02:08:33;;;;;;;2.27;1.90;;;3.80;86.00;;;;;;1905249;74;21095;-52
2022/02/06 02:13:44;;;;;;;4.45;2.00;;;3.90;86.40;;;;;;1843476;78;21137;-52
2022/02/06 02:20:08;;;;;;;1.60;1.40;;;3.90;86.70;;;;;;1874057;74;21016;-52
2022/02/06 02:43:50;;;;;;;3.62;1.92;;;3.90;86.70;;;;;;1905311;75;21037;-52
2022/02/06 02:46:22;;;;;;;2.75;1.98;;;3.90;86.80;;;;;;1903446;74;21039;-52
2022/02/06 02:48:41;;;;;;;2.65;2.25;;;3.80;87.10;;;;;;1903859;74;21035;-51
2022/02/06 02:51:10;;;;;;;1.95;1.77;;;3.80;86.90;;;;;;1905275;74;21016;-52
2022/02/06 02:53:45;;;;;;;5.22;2.45;;;3.90;87.10;;;;;;1905288;75;21541;-52
2022/02/06 02:56:38;;;;;;;3.12;2.17;;;3.90;87.20;;;;;;1905023;74;21027;-52
2022/02/06 02:59:14;;;;;;;2.95;2.25;;;4.00;87.50;;;;;;1904215;74;21192;-52
2022/02/06 03:04:15;;;;;;;2.25;1.47;;;4.10;88.10;;;;;;1877367;75;21043;-53
2022/02/06 03:06:45;;;;;;;3.33;1.85;;;4.10;89.00;;;;;;1905532;75;21438;-53
2022/02/06 03:09:15;;;;;;;2.58;1.65;;;4.10;88.70;;;;;;1914388;74;21112;-52
2022/02/06 03:11:44;;;;;;;3.37;1.55;;;4.10;88.80;;;;;;1924648;74;21022;-52
2022/02/06 03:14:19;;;;;;;2.27;1.70;;;4.10;88.50;;;;;;1924869;74;21023;-53
2022/02/06 03:16:50;;;;;;;2.62;1.67;;;4.10;88.30;;;;;;1924405;74;21511;-53
2022/02/06 03:19:18;;;;;;;2.83;2.05;;;4.10;88.10;;;;;;1924202;74;21097;-52
2022/02/06 03:21:46;;;;;;;2.37;1.90;;;4.10;88.00;;;;;;1924731;74;21047;-52
2022/02/06 03:24:21;;;;;;;4.15;2.45;;;4.20;87.50;;;;;;1924741;74;21018;-53
2022/02/06 03:26:52;;;;;;;3.97;2.23;;;4.20;87.30;;;;;;1925039;74;21086;-52
2022/02/06 03:29:23;;;;;;;2.27;1.90;;;4.20;87.40;;;;;;1924843;74;21642;-51
2022/02/06 03:31:53;;;;;;;2.47;2.10;;;4.20;87.50;;;;;;1924628;74;21018;-52
2022/02/06 03:34:22;;;;;;;3.40;2.30;;;4.20;87.50;;;;;;1924748;74;21011;-52
2022/02/06 03:36:52;;;;;;;2.90;2.40;;;4.20;87.80;;;;;;1924906;74;20999;-52
2022/02/06 03:39:23;;;;;;;3.85;2.70;;;4.20;87.40;;;;;;1924924;74;21015;-52
2022/02/06 03:42:04;;;;;;;3.10;2.37;;;4.20;87.40;;;;;;1924893;74;21073;-52
2022/02/06 03:44:35;;;;;;;4.30;2.70;;;4.20;87.60;;;;;;1923209;74;21081;-52
2022/02/06 03:47:03;;;;;;;6.12;2.90;;;4.20;87.70;;;;;;1922751;74;21094;-50
2022/02/06 03:49:33;;;;;;;4.30;2.77;;;4.20;87.70;;;;;;1923031;74;21081;-50
2022/02/06 03:51:54;;;;;;;4.40;2.75;;;4.20;87.40;;;;;;1923721;74;21071;-52
2022/02/06 03:54:24;;;;;;;2.85;2.12;;;4.20;87.40;;;;;;1924940;74;21073;-53
2022/02/06 03:56:55;;;;;;;2.65;1.90;;;4.20;87.50;;;;;;1924800;74;21088;-51
2022/02/06 03:59:24;;;;;;;4.50;3.15;;;4.30;87.40;;;;;;1924925;74;21410;-52
2022/02/06 04:01:53;;;;;;;5.58;2.80;;;4.30;87.30;;;;;;1924871;74;21042;-51
2022/02/06 04:04:23;;;;;;;6.83;2.65;;;4.30;87.20;;;;;;1924716;74;21144;-52
2022/02/06 04:06:52;;;;;;;4.25;3.15;;;4.30;87.50;;;;;;1924765;74;21026;-52
2022/02/06 04:09:31;;;;;;;6.28;2.98;;;4.30;87.20;;;;;;1924728;74;21043;-52
2022/02/06 04:11:53;;;;;;;8.78;4.00;;;4.30;87.20;;;;;;1923446;74;21046;-52
2022/02/06 04:14:27;;;;;;;5.45;4.08;;;4.40;87.40;;;;;;1924706;74;21022;-52
2022/02/06 04:16:57;;;;;;;6.65;3.67;;;4.40;87.30;;;;;;1924556;74;21469;-52
2022/02/06 04:19:29;;;;;;;7.45;4.03;;;4.50;87.60;;;;;;1924552;74;21014;-52
2022/02/06 04:21:57;;;;;;;8.48;4.72;;;4.50;87.30;;;;;;1923966;74;21473;-52
2022/02/06 04:24:26;;;;;;;3.95;3.45;;;4.50;87.90;;;;;;1924709;74;21019;-53
2022/02/06 04:26:55;;;;;;;7.47;3.27;;;4.60;87.70;;;;;;1924716;74;21475;-53
2022/02/06 04:29:25;;;;;;;3.87;2.45;;;4.50;87.50;;;;;;1924852;74;21081;-53
2022/02/06 04:31:54;;;;;;;3.75;1.90;;;4.50;88.00;;;;;;1924648;74;21069;-52
2022/02/06 04:34:24;;;;;;;4.85;2.80;;;4.50;88.50;;;;;;1924815;74;21050;-53
2022/02/06 04:36:58;;;;;;;4.20;2.70;;;4.50;87.70;;;;;;1924792;74;21085;-52
2022/02/06 04:42:34;;;;;;;3.40;2.60;;;4.40;88.40;;;;;;1924620;74;21006;-52
2022/02/06 04:48:05;;;;;;;2.85;2.35;;;4.40;88.40;;;;;;1924623;74;21554;-52
2022/02/06 05:10:54;;;;;;;4.25;2.90;;;4.40;88.00;;;;;;1924686;74;21043;-55
2022/02/06 05:15:16;;;;;;;8.85;3.65;;;4.40;88.50;;;;;;1905204;75;21109;-52
2022/02/06 05:18:09;;;;;;;5.92;3.33;;;4.40;89.30;;;;;;1904407;74;21470;-52
2022/02/06 05:28:31;;;;;;;5.22;2.70;;;4.40;89.80;;;;;;1905342;75;21032;-55
2022/02/06 05:31:09;;;;;;;5.28;2.80;;;4.40;89.40;;;;;;1904909;74;21101;-54
2022/02/06 05:33:36;;;;;;;11.28;4.90;;;4.40;89.10;;;;;;1905141;74;21007;-54
2022/02/06 05:36:09;;;;;;;5.17;3.08;;;4.40;88.60;;;;;;1905272;75;21081;-55
2022/02/06 05:38:37;;;;;;;2.87;2.45;;;4.50;88.90;;;;;;1905366;75;21051;-54
2022/02/06 05:41:07;;;;;;;4.12;2.65;;;4.50;89.00;;;;;;1905331;74;21031;-54
2022/02/06 05:43:37;;;;;;;2.20;1.90;;;4.50;89.00;;;;;;1905359;75;21043;-53
2022/02/06 05:46:07;;;;;;;4.10;3.50;;;4.50;88.90;;;;;;1905347;74;21073;-54
2022/02/06 05:48:36;;;;;;;2.58;2.37;;;4.50;89.00;;;;;;1905309;75;21044;-55
2022/02/06 05:51:06;;;;;;;4.97;2.80;;;4.50;89.00;;;;;;1905340;75;21027;-55
2022/02/06 05:53:36;;;;;;;4.37;2.87;;;4.50;89.20;;;;;;1905468;75;21003;-54
2022/02/06 05:56:05;;;;;;;5.03;3.30;;;4.50;88.80;;;;;;1905351;75;21027;-54
2022/02/06 05:58:35;;;;;;;5.75;3.50;;;4.50;88.70;;;;;;1905277;75;21089;-55
2022/02/06 06:01:04;;;;;;;5.10;2.67;;;4.50;88.80;;;;;;1905248;75;21023;-53
2022/02/06 06:03:33;;;;;;;3.10;2.75;;;4.50;89.10;;;;;;1905391;75;21008;-54
2022/02/06 06:06:02;;;;;;;3.80;2.98;;;4.50;89.20;;;;;;1905400;75;21035;-56
2022/02/06 06:08:32;;;;;;;3.20;2.65;;;4.50;89.20;;;;;;1905405;75;21095;-54
2022/02/06 06:11:02;;;;;;;4.95;2.90;;;4.50;89.20;;;;;;1914428;74;21050;-53
2022/02/06 06:13:31;;;;;;;3.30;3.00;;;4.50;89.20;;;;;;1924495;74;21127;-54
2022/02/06 06:16:01;;;;;;;6.95;3.42;;;4.50;89.10;;;;;;1924581;74;21022;-54
2022/02/06 06:18:30;;;;;;;4.97;3.35;;;4.50;89.40;;;;;;1924528;74;21035;-54
2022/02/06 06:21:00;;;;;;;4.30;3.35;;;4.50;88.60;;;;;;1924794;74;21026;-54
2022/02/06 06:23:29;;;;;;;5.28;3.40;;;4.60;89.20;;;;;;1924615;74;21074;-55
2022/02/06 06:25:58;;;;;;;4.22;3.20;;;4.60;88.60;;;;;;1924748;74;21449;-54
2022/02/06 06:28:27;;;;;;;4.85;3.45;;;4.60;89.30;;;;;;1924846;74;21019;-54
2022/02/06 06:30:58;;;;;;;4.30;3.55;;;4.60;89.20;;;;;;1924706;74;21499;-54
2022/02/06 06:33:27;;;;;;;5.00;3.25;;;4.70;89.30;;;;;;1924731;74;21035;-54
2022/02/06 06:35:56;;;;;;;7.22;3.35;;;4.70;89.80;;;;;;1924702;74;21018;-54
2022/02/06 06:38:25;;;;;;;3.85;3.47;;;4.80;88.90;;;;;;1924660;74;21018;-53
2022/02/06 06:40:55;;;;;;;4.60;4.05;;;4.80;89.30;;;;;;1924767;73;21022;-53
2022/02/06 06:43:25;;;;;;;5.78;4.30;;;4.90;89.50;;;;;;1924776;74;21178;-52
2022/02/06 06:45:54;;;;;;;4.70;3.83;;;5.00;88.90;;;;;;1924771;74;21023;-52
2022/02/06 06:48:23;;;;;;;8.75;4.40;;;5.00;88.20;;;;;;1924660;74;21473;-52
2022/02/06 06:50:52;;;;;;;5.67;4.08;;;5.00;88.60;;;;;;1924631;74;21088;-52
2022/02/06 06:53:22;;;;;;;7.72;4.58;;;5.10;89.20;;;;;;1924639;74;21053;-51
2022/02/06 06:55:58;;;;;;;7.22;3.62;;;5.10;89.00;;;;;;1924741;74;21073;-51
2022/02/06 06:58:28;;;;;;;7.03;4.75;;;5.10;88.80;;;;;;1923923;74;21098;-52
2022/02/06 07:03:36;;;;;;;10.30;4.33;;;5.20;88.80;;;;;;1924727;74;21093;-54
2022/02/06 07:06:05;;;;;;;6.75;4.92;;;5.20;89.00;;;;;;1924740;74;21026;-55
2022/02/06 07:08:35;;;;;;;8.68;4.22;;;5.20;88.70;;;;;;1924873;74;21022;-54
2022/02/06 07:11:04;;;;;;;4.28;2.75;;;5.30;89.30;;;;;;1924736;74;21121;-55
2022/02/06 07:13:34;;;;;;;5.92;4.35;;;5.30;89.80;;;;;;1924673;74;21019;-55
2022/02/06 07:16:06;;;;;;;9.25;5.15;;;5.30;89.10;;;;;;1924761;74;21052;-53
2022/02/06 07:18:34;;;;;;;14.05;5.55;;;5.30;88.70;;;;;;1924793;74;21535;-53
2022/02/06 07:21:04;;;;;;;7.67;4.50;;;5.20;88.80;;;;;;1924729;74;21010;-54
2022/02/06 07:23:33;;;;;;;9.28;4.25;;;5.30;88.80;;;;;;1924674;74;20991;-53
2022/02/06 07:26:06;;;;;;;9.93;6.05;;;5.20;88.90;;;;;;1924703;74;21023;-52
2022/02/06 07:28:33;;;;;;;8.65;5.42;;;5.30;88.50;;;;;;1924709;74;21464;-54
2022/02/06 07:31:03;;;;;;;7.75;5.37;;;5.30;88.80;;;;;;1924655;74;21019;-54
2022/02/06 07:33:32;;;;;;;5.45;4.00;;;5.30;88.70;;;;;;1924652;74;21053;-54
2022/02/06 07:36:01;;;;;;;6.70;3.87;;;5.30;89.40;;;;;;1924687;74;21164;-54
2022/02/06 07:38:31;;;;;;;13.75;4.35;;;5.30;90.40;;;;;;1924656;74;21019;-54
2022/02/06 07:41:00;;;;;;;3.87;2.60;;;5.20;90.50;;;;;;1924790;74;21076;-54
2022/02/06 07:43:29;;;;;;;2.33;2.12;;;5.10;89.50;;;;;;1924960;74;21010;-55
2022/02/06 07:45:59;;;;;;;2.20;1.67;;;4.80;88.20;;;;;;1924771;74;21051;-54
2022/02/06 07:48:28;;;;;;;3.75;2.50;;;4.50;87.90;;;;;;1924818;74;21023;-52
2022/02/06 07:50:57;;;;;;;3.35;1.90;;;4.30;88.40;;;;;;1924622;74;21081;-52
2022/02/06 07:53:27;;;;;;;3.60;2.50;;;4.10;88.80;;;;;;1924749;74;21088;-52
2022/02/06 07:55:56;;;;;;;3.58;2.55;;;4.00;89.40;;;;;;1924881;74;21084;-52
2022/02/06 07:58:25;;;;;;;9.43;5.33;;;3.90;89.90;;;;;;1924752;74;21089;-49
2022/02/06 08:00:54;;;;;;;6.85;4.42;;;3.80;90.10;;;;;;1924708;74;21023;-53
2022/02/06 08:03:24;;;;;;;3.98;3.05;;;3.70;90.00;;;;;;1924779;74;21092;-52
2022/02/06 08:05:53;;;;;;;5.50;4.15;;;3.70;90.20;;;;;;1924856;74;21027;-52
2022/02/06 08:08:23;;;;;;;2.85;2.42;;;3.70;90.30;;;;;;1924741;74;21023;-51
2022/02/06 08:10:58;;;;;;;3.65;2.45;;;3.70;90.40;;;;;;1924705;74;21093;-52
2022/02/06 08:13:28;;;;;;;5.85;3.67;;;3.70;90.60;;;;;;1905886;74;21517;-52
2022/02/06 08:15:54;;;;;;;3.55;3.02;;;3.70;90.60;;;;;;1905088;74;21020;-52
2022/02/06 08:18:24;;;;;;;2.45;1.82;;;3.70;90.50;;;;;;1905311;74;21047;-50
2022/02/06 08:20:53;;;;;;;4.62;3.30;;;3.70;90.90;;;;;;1905312;74;21113;-50
2022/02/06 08:23:22;;;;;;;3.08;2.20;;;3.70;90.60;;;;;;1905333;74;21094;-49
2022/02/06 08:25:52;;;;;;;5.08;3.42;;;3.70;90.90;;;;;;1905402;75;21144;-51
2022/02/06 08:28:21;;;;;;;3.15;2.75;;;3.80;90.70;;;;;;1905405;74;21054;-52
2022/02/06 08:30:50;;;;;;;2.12;1.92;;;3.70;90.70;;;;;;1905346;75;21024;-52
2022/02/06 08:33:20;;;;;;;2.25;2.05;;;3.70;91.10;;;;;;1905304;75;21097;-52
2022/02/06 08:35:51;;;;;;;1.57;1.47;;;3.70;90.90;;;;;;1905404;75;21023;-52
2022/02/06 08:38:20;;;;;;;2.27;2.02;;;3.70;91.10;;;;;;1905320;74;21027;-51
2022/02/06 08:40:49;;;;;;;2.55;2.17;;;3.70;90.80;;;;;;1905378;74;21027;-48
2022/02/06 08:43:19;;;;;;;2.37;1.70;;;3.70;90.80;;;;;;1905385;75;21027;-49
2022/02/06 08:45:48;;;;;;;2.20;2.00;;;3.60;90.80;;;;;;1905334;75;21077;-49
2022/02/06 08:48:18;;;;;;;3.08;2.25;;;3.60;90.60;;;;;;1905423;75;21115;-50
2022/02/06 08:50:48;;;;;;;2.30;2.10;;;3.60;90.60;;;;;;1905520;75;21051;-49
2022/02/06 08:53:17;;;;;;;2.47;1.98;;;3.60;90.60;;;;;;1905399;74;21015;-51
2022/02/06 08:55:49;;;;;;;1.90;1.60;;;3.60;90.70;;;;;;1905416;74;20991;-51
2022/02/06 08:58:17;;;;;;;2.30;2.10;;;3.60;90.80;;;;;;1905313;74;21039;-52
2022/02/06 09:00:47;;;;;;;2.42;2.22;;;3.60;91.00;;;;;;1905295;75;21081;-51
2022/02/06 09:03:16;;;;;;;2.75;2.20;;;3.60;90.80;;;;;;1905413;75;21035;-51
2022/02/06 09:05:45;;;;;;;2.77;1.70;;;3.60;90.70;;;;;;1905419;75;20991;-50
2022/02/06 09:08:14;;;;;;;1.27;1.17;;;3.60;90.90;;;;;;1905269;75;20999;-50
2022/02/06 09:10:44;;;;;;;2.40;2.15;;;3.50;90.70;;;;;;1905223;75;21117;-53
2022/02/06 09:13:13;;;;;;;2.50;1.40;;;3.50;90.70;;;;;;1917258;74;21051;-52
2022/02/06 09:15:43;;;;;;;3.20;2.05;;;3.50;91.00;;;;;;1924759;74;21147;-50
2022/02/06 09:18:12;;;;;;;2.37;1.75;;;3.50;90.90;;;;;;1924677;74;21054;-51
2022/02/06 09:20:41;;;;;;;2.25;1.40;;;3.40;90.60;;;;;;1924781;73;21074;-52
2022/02/06 09:23:10;;;;;;;5.60;3.60;;;3.40;90.80;;;;;;1924828;74;21469;-53
2022/02/06 09:25:39;;;;;;;5.20;2.60;;;3.40;90.60;;;;;;1924844;74;21072;-50
2022/02/06 09:28:08;;;;;;;4.28;2.90;;;3.30;90.70;;;;;;1924813;74;21441;-53
2022/02/06 09:30:37;;;;;;;5.28;2.77;;;3.30;90.70;;;;;;1924753;74;21022;-52
2022/02/06 09:35:36;;;;;;;4.08;2.72;;;3.40;90.80;;;;;;1924602;74;21100;-51
2022/02/06 09:38:05;;;;;;;3.85;2.90;;;3.40;90.80;;;;;;1924773;74;20991;-52
2022/02/06 09:40:38;;;;;;;3.65;2.80;;;3.40;90.60;;;;;;1924701;74;21022;-52
2022/02/06 09:43:07;;;;;;;6.53;3.65;;;3.50;90.70;;;;;;1924820;74;21015;-52
2022/02/06 09:45:40;;;;;;;6.12;3.08;;;3.50;90.80;;;;;;1924651;74;21019;-50
2022/02/06 09:48:14;;;;;;;4.65;3.22;;;3.50;90.60;;;;;;1924695;74;21469;-51
2022/02/06 09:50:46;;;;;;;6.60;5.00;;;3.50;90.60;;;;;;1924954;74;21031;-51
2022/02/06 09:53:16;;;;;;;5.12;2.98;;;3.50;90.50;;;;;;1924872;74;21011;-53
2022/02/06 09:55:46;;;;;;;7.60;5.00;;;3.60;90.70;;;;;;1924862;74;21049;-52
2022/02/06 10:00:50;;;;;;;7.37;5.35;;;3.60;90.80;;;;;;1924988;74;21042;-51
2022/02/06 10:03:21;;;;;;;8.08;5.67;;;3.60;90.70;;;;;;1924794;74;21047;-52
2022/02/06 10:05:51;;;;;;;7.20;4.15;;;3.70;90.60;;;;;;1924651;74;21015;-50
2022/02/06 10:08:30;;;;;;;8.30;5.97;;;3.70;90.70;;;;;;1924584;74;21100;-51
2022/02/06 10:11:05;;;;;;;10.38;6.28;;;3.70;90.70;;;;;;1924363;74;21035;-51
2022/02/06 10:13:37;;;;;;;5.62;4.15;;;3.70;90.60;;;;;;1924367;74;21132;-53
2022/02/06 10:16:07;;;;;;;10.65;6.35;;;3.80;90.80;;;;;;1924737;74;21018;-53
2022/02/06 10:18:37;;;;;;;7.62;5.17;;;3.80;90.50;;;;;;1923871;74;21559;-52
2022/02/06 10:21:09;;;;;;;8.73;5.33;;;3.90;90.70;;;;;;1924727;74;21039;-52
2022/02/06 10:23:44;;;;;;;11.33;6.90;;;3.90;90.80;;;;;;1924454;74;21140;-52
2022/02/06 10:26:33;;;;;;;12.18;7.15;;;4.00;90.50;;;;;;1924020;74;21046;-53
2022/02/06 10:31:55;;;;;;;14.15;7.28;;;4.00;90.40;;;;;;1924564;74;21015;-53
2022/02/06 10:34:26;;;;;;;7.22;4.97;;;4.00;90.40;;;;;;1924620;74;21027;-52
2022/02/06 10:37:22;;;;;;;12.10;7.22;;;4.00;90.40;;;;;;1924583;74;21022;-51
2022/02/06 10:40:04;;;;;;;10.23;6.00;;;4.00;90.40;;;;;;1924683;74;21076;-52
2022/02/06 10:42:41;;;;;;;15.55;8.48;;;4.00;90.30;;;;;;1924810;74;21096;-52
2022/02/06 10:45:29;;;;;;;10.35;7.75;;;4.00;90.10;;;;;;1923804;74;21100;-52
2022/02/06 10:47:56;;;;;;;11.48;6.85;;;4.00;90.10;;;;;;1923746;74;21038;-53
2022/02/06 10:50:28;;;;;;;7.05;5.10;;;4.00;89.50;;;;;;1924735;74;20995;-53
2022/02/06 10:53:11;;;;;;;10.03;7.78;;;3.90;89.80;;;;;;1924768;74;21011;-53
2022/02/06 10:56:01;;;;;;;14.38;7.87;;;3.90;89.40;;;;;;1922926;74;21022;-53
2022/02/06 10:58:33;;;;;;;11.90;8.35;;;3.90;88.80;;;;;;1924829;74;21160;-53
2022/02/06 11:01:10;;;;;;;16.07;8.83;;;3.80;89.20;;;;;;1924738;74;21151;-52
2022/02/06 11:03:42;;;;;;;10.05;7.22;;;3.70;89.40;;;;;;1923231;74;21030;-52
2022/02/06 11:07:07;;;;;;;13.90;8.53;;;3.70;89.30;;;;;;1924890;74;21038;-53
2022/02/06 11:09:03;;;;;;;11.63;8.20;;;3.70;88.40;;;;;;1914753;74;21035;-52
2022/02/06 11:11:36;;;;;;;5.40;4.20;;;3.60;88.30;;;;;;1924735;74;21119;-53
2022/02/06 11:14:11;;;;;;;6.08;4.75;;;3.60;89.00;;;;;;1924772;74;21104;-52
2022/02/06 11:16:39;;;;;;;5.95;5.05;;;3.50;89.40;;;;;;1924259;74;21527;-52
2022/02/06 11:19:09;;;;;;;4.58;3.47;;;3.40;88.90;;;;;;1924540;74;21414;-53
2022/02/06 11:21:41;;;;;;;6.03;4.47;;;3.40;89.20;;;;;;1924478;74;21449;-52
2022/02/06 11:24:12;;;;;;;6.72;3.65;;;3.30;90.00;;;;;;1924729;74;21019;-53
2022/02/06 11:26:41;;;;;;;4.17;3.40;;;3.30;90.30;;;;;;1924290;74;21072;-52
2022/02/06 11:29:11;;;;;;;3.90;3.37;;;3.20;90.60;;;;;;1924761;74;21019;-53
2022/02/06 11:31:41;;;;;;;2.55;2.35;;;3.30;90.20;;;;;;1924721;74;21022;-53
2022/02/06 11:34:15;;;;;;;4.25;2.98;;;3.20;90.40;;;;;;1924715;74;21097;-53
2022/02/06 11:45:33;;;;;;;2.58;2.08;;;3.20;90.40;;;;;;1924746;74;21033;-52
2022/02/06 11:48:08;;;;;;;2.55;2.35;;;3.10;90.40;;;;;;1924709;74;21487;-52
2022/02/06 11:50:46;;;;;;;4.67;3.30;;;3.10;90.50;;;;;;1924595;74;21033;-52
2022/02/06 11:53:09;;;;;;;3.08;2.65;;;3.10;90.60;;;;;;1923450;74;21026;-54
2022/02/06 11:55:44;;;;;;;2.75;2.37;;;3.20;90.70;;;;;;1924554;74;20995;-52
2022/02/06 11:58:31;;;;;;;2.92;2.72;;;3.20;90.50;;;;;;1924592;74;21084;-50
2022/02/06 12:01:12;;;;;;;7.37;4.47;;;3.20;90.30;;;;;;1924677;74;21129;-53
2022/02/06 12:03:56;;;;;;;6.80;4.37;;;3.20;90.00;;;;;;1924748;74;21011;-54
2022/02/06 12:06:29;;;;;;;5.42;3.85;;;3.20;90.40;;;;;;1924606;74;21072;-52
2022/02/06 12:12:11;;;;;;;5.67;4.72;;;3.20;90.40;;;;;;1916545;74;21100;-52
2022/02/06 12:14:50;;;;;;;4.08;3.17;;;3.20;90.30;;;;;;1924606;74;21105;-52
2022/02/06 12:20:14;;;;;;;5.20;3.92;;;3.20;90.50;;;;;;1924613;74;21352;-53
2022/02/06 12:22:49;;;;;;;5.42;4.33;;;3.10;90.30;;;;;;1924757;74;21089;-53
2022/02/06 12:25:24;;;;;;;2.70;2.50;;;3.10;90.50;;;;;;1904065;74;21441;-53
2022/02/06 12:28:18;;;;;;;4.03;3.50;;;3.10;90.50;;;;;;1924580;74;21150;-53
2022/02/06 12:30:48;;;;;;;4.03;3.50;;;3.20;90.60;;;;;;1924731;74;21034;-52
2022/02/06 12:33:26;;;;;;;5.00;3.95;;;3.20;90.80;;;;;;1923759;74;21120;-50
2022/02/06 12:38:40;;;;;;;4.25;3.62;;;3.30;90.60;;;;;;1904022;74;21121;-52
2022/02/06 12:41:27;;;;;;;5.03;3.75;;;3.30;90.30;;;;;;1924636;74;20994;-51
2022/02/06 12:44:02;;;;;;;4.92;3.65;;;3.30;90.10;;;;;;1924852;74;21081;-51
2022/02/06 12:46:27;;;;;;;6.70;5.05;;;3.30;90.10;;;;;;1924008;74;21531;-50
2022/02/06 12:49:01;;;;;;;11.48;4.92;;;3.30;90.20;;;;;;1924720;74;21031;-53
2022/02/06 12:51:32;;;;;;;6.33;4.58;;;3.30;90.00;;;;;;1924286;74;21101;-53
2022/02/06 12:54:11;;;;;;;6.58;4.70;;;3.30;89.80;;;;;;1924592;74;21080;-52
2022/02/06 12:56:41;;;;;;;7.17;5.25;;;3.30;90.20;;;;;;1924688;74;21019;-53
2022/02/06 12:59:11;;;;;;;8.85;5.45;;;3.30;89.50;;;;;;1924908;74;21015;-52
2022/02/06 13:01:44;;;;;;;8.83;5.92;;;3.30;89.40;;;;;;1924657;74;21022;-52
2022/02/06 13:04:16;;;;;;;9.90;5.33;;;3.30;89.60;;;;;;1924729;74;21481;-50
2022/02/06 13:06:47;;;;;;;10.72;6.60;;;3.30;89.60;;;;;;1924742;74;21023;-52
2022/02/06 13:09:30;;;;;;;7.92;4.80;;;3.30;89.60;;;;;;1924765;74;21023;-52
2022/02/06 13:12:06;;;;;;;9.73;5.90;;;3.30;89.40;;;;;;1924657;74;21050;-51
2022/02/06 13:22:59;;;;;;;12.43;5.83;;;3.30;90.00;;;;;;1905304;74;21023;-53
2022/02/06 13:34:19;;;;;;;9.53;7.03;;;3.30;89.00;;;;;;1905359;74;21074;-53
2022/02/06 13:36:44;;;;;;;15.08;10.08;;;3.30;89.00;;;;;;1903556;74;21035;-53
2022/02/06 13:39:19;;;;;;;10.50;6.58;;;3.30;89.10;;;;;;1905060;74;21120;-53
2022/02/06 13:41:47;;;;;;;9.93;6.92;;;3.30;87.80;;;;;;1905350;74;21043;-52
2022/02/06 13:44:21;;;;;;;10.40;7.10;;;3.30;87.90;;;;;;1905384;75;21019;-53
2022/02/06 13:46:52;;;;;;;8.35;6.10;;;3.30;88.20;;;;;;1905133;75;21090;-51
2022/02/06 13:49:23;;;;;;;14.70;9.95;;;3.30;88.30;;;;;;1905290;75;21114;-51
2022/02/06 13:51:53;;;;;;;10.93;6.55;;;3.30;88.80;;;;;;1904390;74;21523;-52
2022/02/06 13:54:24;;;;;;;15.13;9.15;;;3.30;89.10;;;;;;1905365;75;21019;-51
2022/02/06 13:57:05;;;;;;;13.53;9.00;;;3.30;89.10;;;;;;1904853;74;21062;-53
2022/02/06 13:59:39;;;;;;;18.25;10.05;;;3.30;89.20;;;;;;1905102;74;21040;-54
2022/02/06 14:02:11;;;;;;;12.43;7.78;;;3.30;89.30;;;;;;1905307;75;21018;-52
2022/02/06 14:04:43;;;;;;;12.18;8.08;;;3.30;89.30;;;;;;1905266;75;21101;-52
2022/02/06 14:07:20;;;;;;;11.25;7.25;;;3.30;89.50;;;;;;1905266;75;21113;-53
2022/02/06 14:10:01;;;;;;;15.72;8.28;;;3.30;89.30;;;;;;1905152;74;21165;-53
2022/02/06 14:12:27;;;;;;;18.15;8.63;;;3.30;89.40;;;;;;1904878;74;21061;-54
2022/02/06 14:14:58;;;;;;;16.10;8.00;;;3.30;89.30;;;;;;1908257;74;21043;-51
2022/02/06 14:17:35;;;;;;;16.37;9.28;;;3.30;89.30;;;;;;1924775;74;21018;-49
2022/02/06 14:20:18;;;;;;;9.55;5.55;;;3.30;89.30;;;;;;1924875;74;21042;-51
2022/02/06 14:22:49;;;;;;;10.50;6.60;;;3.30;88.90;;;;;;1924847;74;21006;-52
2022/02/06 14:25:27;;;;;;;12.25;5.83;;;3.30;88.50;;;;;;1924896;74;21011;-53
2022/02/06 14:27:57;;;;;;;12.93;7.95;;;3.30;88.00;;;;;;1924789;74;21010;-52
2022/02/06 14:30:42;;;;;;;15.48;8.83;;;3.30;87.70;;;;;;1924777;74;21007;-53
2022/02/06 14:33:14;;;;;;;16.93;8.88;;;3.30;87.90;;;;;;1925044;74;21116;-53
2022/02/06 14:35:54;;;;;;;20.15;10.35;;;3.30;88.20;;;;;;1924298;74;21457;-52
2022/02/06 14:38:33;;;;;;;17.42;10.13;;;3.30;88.20;;;;;;1924853;74;21055;-52
2022/02/06 14:41:35;;;;;;;18.52;9.80;;;3.30;88.30;;;;;;1924439;74;21018;-51
2022/02/06 14:44:08;;;;;;;13.62;7.92;;;3.30;88.30;;;;;;1923574;74;20991;-52
2022/02/06 14:46:38;;;;;;;19.85;9.28;;;3.20;88.50;;;;;;1924855;74;21100;-53
2022/02/06 14:49:16;;;;;;;18.98;10.90;;;3.20;88.60;;;;;;1924895;74;21043;-52
2022/02/06 14:51:40;;;;;;;22.32;12.65;;;3.20;88.60;;;;;;1923968;74;21448;-52
2022/02/06 14:54:10;;;;;;;21.05;11.55;;;3.20;88.80;;;;;;1924959;74;21081;-52
2022/02/06 14:56:40;;;;;;;20.37;12.10;;;3.20;89.00;;;;;;1924851;74;21080;-53
2022/02/06 14:59:10;;;;;;;23.80;13.00;;;3.30;89.30;;;;;;1924694;74;21019;-53
2022/02/06 15:01:39;;;;;;;17.00;10.93;;;3.30;89.10;;;;;;1924685;74;20995;-52
2022/02/06 15:04:10;;;;;;;24.75;12.78;;;3.30;89.00;;;;;;1924793;74;21038;-52
2022/02/06 15:06:39;;;;;;;21.77;10.75;;;3.30;88.90;;;;;;1924818;74;21163;-52
2022/02/06 15:09:09;;;;;;;23.70;13.50;;;3.30;88.60;;;;;;1924741;74;21050;-50
2022/02/06 15:11:38;;;;;;;16.32;10.68;;;3.30;88.60;;;;;;1924620;74;21027;-52
2022/02/06 15:14:07;;;;;;;18.32;10.65;;;3.20;88.50;;;;;;1924837;74;21409;-52
2022/02/06 15:16:37;;;;;;;17.62;10.68;;;3.20;88.80;;;;;;1924734;74;21058;-50
2022/02/06 15:19:15;;;;;;;15.38;8.48;;;3.20;88.90;;;;;;1924839;74;21069;-52
2022/02/06 15:21:44;;;;;;;15.65;8.38;;;3.20;88.80;;;;;;1924850;74;21082;-52
2022/02/06 15:24:16;;;;;;;12.65;7.87;;;3.20;88.70;;;;;;1924773;74;21109;-53
2022/02/06 15:26:44;;;;;;;16.67;8.73;;;3.20;89.10;;;;;;1924944;74;21488;-53
2022/02/06 15:29:14;;;;;;;16.05;7.58;;;3.20;88.90;;;;;;1924812;74;21113;-52
2022/02/06 15:31:43;;;;;;;17.12;8.63;;;3.20;89.00;;;;;;1924718;74;21077;-52
2022/02/06 15:34:13;;;;;;;13.43;8.18;;;3.10;89.00;;;;;;1924694;74;21081;-52
2022/02/06 15:36:48;;;;;;;17.37;8.20;;;3.20;89.00;;;;;;1924772;74;21093;-52
2022/02/06 15:39:34;;;;;;;10.65;7.28;;;3.20;89.10;;;;;;1903118;74;21014;-52
2022/02/06 15:41:56;;;;;;;9.98;6.62;;;3.20;89.30;;;;;;1922741;74;21109;-52
2022/02/06 15:44:25;;;;;;;15.45;7.90;;;3.20;90.00;;;;;;1924815;74;21578;-53